Time;durP1;ratioP1;P1;durP2;ratioP2;P2;SDS_P1;SDS_P2;PMS_P1;PMS_P2;Temp;Humidity;BMP_temperature;BMP_pressure;BME280_temperature;BME280_humidity;BME280_pressure;Samples;Min_cycle;Max_cycle;Signal;HPM_P1;HPM_P2
2024/01/17 00:05:26;;;;;;;12;5.7;;;;;;;-3.39;78.71;98011.666666667;;;;
2024/01/17 00:15:26;;;;;;;12;5.7;;;;;;;-3.45;78.93;98008.333333333;;;;
2024/01/17 00:25:26;;;;;;;10.6;5.7;;;;;;;-3.59;78.89;97996.666666667;;;;
2024/01/17 00:35:26;;;;;;;10.6;5.7;;;;;;;-3.71;78.3;97981.666666667;;;;
2024/01/17 00:45:26;;;;;;;10.6;5.7;;;;;;;-3.82;78.64;97973.333333333;;;;
2024/01/17 00:56:26;;;;;;;7.5;4;;;;;;;-4.09;78.83;97985;;;;
2024/01/17 01:07:26;;;;;;;7.5;4;;;;;;;-4.68;82.71;97981.666666667;;;;
2024/01/17 01:18:26;;;;;;;13.1;7.2;;;;;;;-5.12;82.53;97968.333333333;;;;
2024/01/17 01:28:26;;;;;;;13.1;7.2;;;;;;;-5.49;82.85;97960;;;;
2024/01/17 01:39:26;;;;;;;13.1;7.2;;;;;;;-5.72;83.47;97956.666666667;;;;
2024/01/17 01:49:26;;;;;;;15.8;8.2;;;;;;;-5.87;83.78;97946.666666667;;;;
2024/01/17 02:00:26;;;;;;;15.8;8.2;;;;;;;-6.1;84.19;97936.666666667;;;;
2024/01/17 02:10:26;;;;;;;15.8;8.2;;;;;;;-6.26;84.25;97920;;;;
2024/01/17 02:21:26;;;;;;;15.4;8.4;;;;;;;-6.41;84.37;97923.333333333;;;;
2024/01/17 02:31:26;;;;;;;15.4;8.4;;;;;;;-6.51;85.69;97923.333333333;;;;
2024/01/17 02:41:26;;;;;;;15.4;8.4;;;;;;;-6.66;85.13;97908.333333333;;;;
2024/01/17 02:52:26;;;;;;;13.2;9;;;;;;;-6.9;85.36;97896.666666667;;;;
2024/01/17 03:03:26;;;;;;;13.2;9;;;;;;;-7.08;84.24;97868.333333333;;;;
2024/01/17 03:13:26;;;;;;;13.2;9;;;;;;;-7.26;84.41;97863.333333333;;;;
2024/01/17 03:24:26;;;;;;;12;7;;;;;;;-7.41;84.32;97861.666666667;;;;
2024/01/17 03:35:26;;;;;;;12;7;;;;;;;-7.52;84.27;97858.333333333;;;;
2024/01/17 03:46:26;;;;;;;12;7;;;;;;;-7.64;84.07;97843.333333333;;;;
2024/01/17 03:56:26;;;;;;;9.8;5.8;;;;;;;-7.78;84;97855;;;;
2024/01/17 04:07:26;;;;;;;9.8;5.8;;;;;;;-7.83;84.18;97855;;;;
2024/01/17 04:18:26;;;;;;;14;8.5;;;;;;;-7.84;84.62;97850;;;;
2024/01/17 04:29:26;;;;;;;14;8.5;;;;;;;-7.84;84.57;97843.333333333;;;;
2024/01/17 04:39:26;;;;;;;14;8.5;;;;;;;-7.95;84.62;97820;;;;
2024/01/17 04:49:27;;;;;;;11.7;7.3;;;;;;;-8.04;84.38;97818.333333333;;;;
2024/01/17 05:00:26;;;;;;;11.7;7.3;;;;;;;-8.13;83.96;97798.333333333;;;;
2024/01/17 05:11:27;;;;;;;11.7;7.3;;;;;;;-8.5;83.83;97786.666666667;;;;
2024/01/17 05:21:26;;;;;;;11.3;7.8;;;;;;;-8.74;83.37;97760;;;;
2024/01/17 05:32:26;;;;;;;11.3;7.8;;;;;;;-8.69;83.71;97758.333333333;;;;
2024/01/17 05:42:26;;;;;;;11.3;7.8;;;;;;;-8.72;83.19;97746.666666667;;;;
2024/01/17 05:53:26;;;;;;;10.2;7.6;;;;;;;-8.98;83.04;97718.333333333;;;;
2024/01/17 06:03:26;;;;;;;10.2;7.6;;;;;;;-8.91;83.86;97711.666666667;;;;
2024/01/17 06:13:26;;;;;;;10.2;7.6;;;;;;;-9.03;83.07;97708.333333333;;;;
2024/01/17 06:24:27;;;;;;;14;8.8;;;;;;;-9.13;82.99;97706.666666667;;;;
2024/01/17 06:35:27;;;;;;;14;8.8;;;;;;;-9.09;82.76;97701.666666667;;;;
2024/01/17 06:46:27;;;;;;;13.3;8;;;;;;;-8.92;82.87;97690;;;;
2024/01/17 06:57:26;;;;;;;13.3;8;;;;;;;-8.75;82.56;97668.333333333;;;;
2024/01/17 07:07:26;;;;;;;13.3;8;;;;;;;-8.53;82.95;97651.666666667;;;;
2024/01/17 07:17:27;;;;;;;21;13.7;;;;;;;-8.2;82.7;97636.666666667;;;;
2024/01/17 07:28:27;;;;;;;21;13.7;;;;;;;-7.69;82.69;97611.666666667;;;;
2024/01/17 07:39:27;;;;;;;21;13.7;;;;;;;-7.21;82.87;97600;;;;
2024/01/17 07:50:27;;;;;;;17.2;10.6;;;;;;;-6.57;83.21;97583.333333333;;;;
2024/01/17 08:01:27;;;;;;;17.2;10.6;;;;;;;-5.97;82.8;97570;;;;
2024/01/17 08:12:27;;;;;;;17.2;10.6;;;;;;;-5.66;82.49;97566.666666667;;;;
2024/01/17 08:22:27;;;;;;;22.3;11.9;;;;;;;-4.91;83.29;97543.333333333;;;;
2024/01/17 08:33:27;;;;;;;22.3;11.9;;;;;;;-4.2;82.49;97520;;;;
2024/01/17 08:43:27;;;;;;;22.3;11.9;;;;;;;-3.75;81.54;97505;;;;
2024/01/17 08:54:27;;;;;;;11.2;6.7;;;;;;;-2.58;75.89;97488.333333333;;;;
2024/01/17 09:05:27;;;;;;;11.2;6.7;;;;;;;-1.87;71.44;97468.333333333;;;;
2024/01/17 09:15:27;;;;;;;11.2;6.7;;;;;;;-1.31;70.03;97466.666666667;;;;
2024/01/17 09:26:27;;;;;;;7.7;4.3;;;;;;;-0.8;68.23;97431.666666667;;;;
2024/01/17 09:37:27;;;;;;;7.7;4.3;;;;;;;-0.33;66.6;97405;;;;
2024/01/17 09:48:27;;;;;;;16.9;10.8;;;;;;;-0.03;64.4;97371.666666667;;;;
2024/01/17 09:59:28;;;;;;;16.9;10.8;;;;;;;0.3;63.49;97338.333333333;;;;
2024/01/17 10:10:27;;;;;;;16.9;10.8;;;;;;;0.37;62.59;97315;;;;
2024/01/17 10:20:27;;;;;;;11.3;6.2;;;;;;;0.58;62.47;97298.333333333;;;;
2024/01/17 10:31:27;;;;;;;11.3;6.2;;;;;;;1.03;60.19;97290;;;;
2024/01/17 10:41:27;;;;;;;11.3;6.2;;;;;;;1.49;60.41;97261.666666667;;;;
2024/01/17 10:51:27;;;;;;;9.1;5.1;;;;;;;1.47;59.26;97238.333333333;;;;
2024/01/17 11:02:27;;;;;;;9.1;5.1;;;;;;;1.86;59.12;97196.666666667;;;;
2024/01/17 11:12:27;;;;;;;9.1;5.1;;;;;;;1.85;58.95;97175;;;;
2024/01/17 11:22:27;;;;;;;8.6;4.6;;;;;;;2.18;58.91;97153.333333333;;;;
2024/01/17 11:32:28;;;;;;;8.6;4.6;;;;;;;2.43;58.1;97135;;;;
2024/01/17 11:43:27;;;;;;;8.6;4.6;;;;;;;2.76;57.17;97111.666666667;;;;
2024/01/17 11:53:27;;;;;;;7.5;4.8;;;;;;;2.72;56.82;97090;;;;
2024/01/17 12:04:27;;;;;;;7.5;4.8;;;;;;;3.04;56.83;97056.666666667;;;;
2024/01/17 12:15:27;;;;;;;11.7;5.6;;;;;;;3.28;56.43;97040;;;;
2024/01/17 12:26:27;;;;;;;11.7;5.6;;;;;;;3.19;57.37;97010;;;;
2024/01/17 12:36:27;;;;;;;11.7;5.6;;;;;;;3.43;56.57;96990;;;;
2024/01/17 12:46:27;;;;;;;12.2;6.5;;;;;;;3.63;57.12;96975;;;;
2024/01/17 12:57:27;;;;;;;12.2;6.5;;;;;;;3.67;58.07;96958.333333333;;;;
2024/01/17 13:07:27;;;;;;;12.2;6.5;;;;;;;4.11;57.36;96941.666666667;;;;
2024/01/17 13:18:20;;;;;;;10.8;7;;;;;;;4.13;57.17;96910;;;;
2024/01/17 13:28:19;;;;;;;10.8;7;;;;;;;4.33;57.94;96886.666666667;;;;
2024/01/17 13:39:23;;;;;;;10.8;7;;;;;;;4.4;58.14;96873.333333333;;;;
2024/01/17 13:49:24;;;;;;;17.1;10;;;;;;;3.71;59.04;96858.333333333;;;;
2024/01/17 13:59:19;;;;;;;17.1;10;;;;;;;3.37;61.2;96861.666666667;;;;
2024/01/17 14:09:23;;;;;;;17.1;10;;;;;;;2.67;63.33;96843.333333333;;;;
2024/01/17 14:19:19;;;;;;;15.4;9.9;;;;;;;2.56;64.33;96830;;;;
2024/01/17 14:30:19;;;;;;;15.4;9.9;;;;;;;2.31;66.03;96808.333333333;;;;
2024/01/17 14:41:22;;;;;;;15.4;9.9;;;;;;;2.09;66.94;96798.333333333;;;;
2024/01/17 14:51:19;;;;;;;17.9;9.2;;;;;;;1.99;68.52;96780;;;;
2024/01/17 15:01:20;;;;;;;17.9;9.2;;;;;;;2;68.78;96765;;;;
2024/01/17 15:12:20;;;;;;;17.9;9.2;;;;;;;1.93;69.12;96746.666666667;;;;
2024/01/17 15:23:19;;;;;;;14.6;8.5;;;;;;;1.88;69.38;96718.333333333;;;;
2024/01/17 15:34:19;;;;;;;14.6;8.5;;;;;;;1.85;69.59;96710;;;;
2024/01/17 15:45:19;;;;;;;21.1;11.3;;;;;;;1.79;70.07;96688.333333333;;;;
2024/01/17 15:56:21;;;;;;;21.1;11.3;;;;;;;1.71;70.56;96660;;;;
2024/01/17 16:07:19;;;;;;;21.1;11.3;;;;;;;1.42;71.24;96641.666666667;;;;
2024/01/17 16:18:19;;;;;;;97.7;55.5;;;;;;;1.22;71.87;96633.333333333;;;;
2024/01/17 16:28:20;;;;;;;97.7;55.5;;;;;;;1.12;72.57;96621.666666667;;;;
2024/01/17 16:38:20;;;;;;;97.7;55.5;;;;;;;1.18;72.49;96631.666666667;;;;
2024/01/17 16:49:19;;;;;;;26.4;15.7;;;;;;;1.11;72.82;96630;;;;
2024/01/17 17:00:19;;;;;;;26.4;15.7;;;;;;;1.2;73.27;96628.333333333;;;;
2024/01/17 17:10:19;;;;;;;26.4;15.7;;;;;;;1.21;73.44;96636.666666667;;;;
2024/01/17 17:21:19;;;;;;;21.2;11.7;;;;;;;1.18;73.7;96626.666666667;;;;
2024/01/17 17:31:21;;;;;;;21.2;11.7;;;;;;;1.19;74.05;96600;;;;
2024/01/17 17:42:19;;;;;;;21.2;11.7;;;;;;;1.03;74.72;96580;;;;
2024/01/17 17:53:20;;;;;;;22.7;14.6;;;;;;;1.11;74.74;96550;;;;
2024/01/17 18:03:20;;;;;;;22.7;14.6;;;;;;;1;75.66;96510;;;;
2024/01/17 18:13:20;;;;;;;22.7;14.6;;;;;;;0.99;75.3;96490;;;;
2024/01/17 18:24:19;;;;;;;22.8;13.1;;;;;;;0.76;75.73;96478.333333333;;;;
2024/01/17 18:34:26;;;;;;;22.8;13.1;;;;;;;0.58;76.71;96456.666666667;;;;
2024/01/17 18:44:20;;;;;;;24.9;16.3;;;;;;;0.58;77.11;96445;;;;
2024/01/17 18:55:20;;;;;;;24.9;16.3;;;;;;;0.68;77.32;96436.666666667;;;;
2024/01/17 19:05:20;;;;;;;24.9;16.3;;;;;;;0.83;77.52;96446.666666667;;;;
2024/01/17 19:16:20;;;;;;;44.1;24.4;;;;;;;0.95;77.71;96421.666666667;;;;
2024/01/17 19:27:20;;;;;;;44.1;24.4;;;;;;;1.03;77.83;96391.666666667;;;;
2024/01/17 19:37:20;;;;;;;44.1;24.4;;;;;;;0.95;77.52;96376.666666667;;;;
2024/01/17 19:48:21;;;;;;;104.1;54.5;;;;;;;0.95;77.97;96338.333333333;;;;
2024/01/17 19:58:20;;;;;;;104.1;54.5;;;;;;;0.91;77.93;96323.333333333;;;;
2024/01/17 20:08:20;;;;;;;104.1;54.5;;;;;;;0.81;77.96;96303.333333333;;;;
2024/01/17 20:18:20;;;;;;;41.2;25.2;;;;;;;0.55;78.36;96270;;;;
2024/01/17 20:29:20;;;;;;;41.2;25.2;;;;;;;0.81;82.25;96250;;;;
2024/01/17 20:39:22;;;;;;;41.2;25.2;;;;;;;0.75;80.1;96245;;;;
2024/01/17 20:49:21;;;;;;;37.5;22.7;;;;;;;0.72;80.39;96215;;;;
2024/01/17 21:00:20;;;;;;;37.5;22.7;;;;;;;0.77;80.42;96220;;;;
2024/01/17 21:10:20;;;;;;;37.5;22.7;;;;;;;0.74;80.91;96210;;;;
2024/01/17 21:21:20;;;;;;;41.9;23;;;;;;;0.65;81.22;96143.333333333;;;;
2024/01/17 21:31:20;;;;;;;41.9;23;;;;;;;0.56;80.7;96148.333333333;;;;
2024/01/17 21:41:20;;;;;;;41.9;23;;;;;;;0.08;81.42;96138.333333333;;;;
2024/01/17 21:52:20;;;;;;;62;34.7;;;;;;;-0.03;82.18;96101.666666667;;;;
2024/01/17 22:02:21;;;;;;;62;34.7;;;;;;;-0.07;83.07;96088.333333333;;;;
2024/01/17 22:12:20;;;;;;;62;34.7;;;;;;;0.1;83.87;96076.666666667;;;;
2024/01/17 22:23:20;;;;;;;50.3;27.8;;;;;;;0.24;83.7;96078.333333333;;;;
2024/01/17 22:34:20;;;;;;;50.3;27.8;;;;;;;0.18;83.11;96066.666666667;;;;
2024/01/17 22:44:21;;;;;;;41.7;24.8;;;;;;;0.07;84.88;96025;;;;
2024/01/17 22:54:20;;;;;;;41.7;24.8;;;;;;;0.4;85.95;96011.666666667;;;;
2024/01/17 23:05:20;;;;;;;41.7;24.8;;;;;;;0.89;86.38;96010;;;;
2024/01/17 23:15:20;;;;;;;19.7;11.3;;;;;;;1.42;87.93;96006.666666667;;;;
2024/01/17 23:25:20;;;;;;;19.7;11.3;;;;;;;1.87;88.27;95975;;;;
2024/01/17 23:36:20;;;;;;;19.7;11.3;;;;;;;1.83;85.12;95985;;;;
2024/01/17 23:46:20;;;;;;;25.2;15.3;;;;;;;1.63;83.96;95978.333333333;;;;
2024/01/17 23:56:20;;;;;;;25.2;15.3;;;;;;;1.6;85.31;95966.666666667;;;;
